Time;durP1;ratioP1;P1;durP2;ratioP2;P2;SDS_P1;SDS_P2;PMS_P1;PMS_P2;Temp;Humidity;BMP_temperature;BMP_pressure;BME280_temperature;BME280_humidity;BME280_pressure;Samples;Min_cycle;Max_cycle;Signal;HPM_P1;HPM_P2
2023/08/10 00:00:53;;;;;;;;;11.75;11.75;;;;;-143.47;100.00;63865.75;2096595;28;46568;-51
2023/08/10 00:01:53;;;;;;;;;11.25;11.25;;;;;-143.47;100.00;63865.75;2096928;28;46290;-54
2023/08/10 00:02:54;;;;;;;;;11.75;11.75;;;;;-143.47;100.00;63865.75;2095884;28;46321;-51
2023/08/10 00:03:54;;;;;;;;;11.67;11.33;;;;;-143.47;100.00;63865.75;2090900;28;46486;-53
2023/08/10 00:04:54;;;;;;;;;11.00;11.00;;;;;-143.47;100.00;63865.75;2092797;28;46304;-54
2023/08/10 00:05:55;;;;;;;;;11.00;11.00;;;;;-143.47;100.00;63865.75;2097175;28;46876;-52
2023/08/10 00:06:55;;;;;;;;;13.25;13.25;;;;;-143.47;100.00;63865.75;2096529;28;46611;-54
2023/08/10 00:07:55;;;;;;;;;12.25;11.50;;;;;-143.47;100.00;63865.75;2096592;28;46268;-56
2023/08/10 00:08:56;;;;;;;;;13.50;13.00;;;;;-143.47;100.00;63865.75;2097283;28;46405;-54
2023/08/10 00:09:57;;;;;;;;;10.25;10.25;;;;;-143.47;100.00;63865.75;2096599;28;47036;-54
2023/08/10 00:10:57;;;;;;;;;13.40;13.20;;;;;-143.47;100.00;63865.75;2095964;28;46858;-53
2023/08/10 00:11:58;;;;;;;;;13.75;12.75;;;;;-143.47;100.00;63865.75;2094669;28;46256;-49
2023/08/10 00:12:58;;;;;;;;;12.00;12.00;;;;;-143.47;100.00;63865.75;2094758;28;46582;-49
2023/08/10 00:13:58;;;;;;;;;14.75;14.75;;;;;-143.47;100.00;63865.75;2095213;28;46471;-52
2023/08/10 00:14:58;;;;;;;;;14.75;14.75;;;;;-143.47;100.00;63865.75;2096870;28;46451;-52
2023/08/10 00:15:59;;;;;;;;;13.00;13.00;;;;;-143.47;100.00;63865.75;2095849;28;46642;-50
2023/08/10 00:16:59;;;;;;;;;12.50;11.75;;;;;-143.47;100.00;63865.75;2096864;28;46825;-52
2023/08/10 00:18:00;;;;;;;;;12.75;10.50;;;;;-143.47;100.00;63865.75;2096642;28;46525;-53
2023/08/10 00:19:01;;;;;;;;;15.75;15.00;;;;;-143.47;100.00;63865.75;2093554;28;46262;-51
2023/08/10 00:20:05;;;;;;;;;13.00;12.00;;;;;-143.47;100.00;63865.75;2089336;28;46861;-54
2023/08/10 00:21:05;;;;;;;;;13.00;13.00;;;;;-143.47;100.00;63865.75;2095606;28;46558;-54
2023/08/10 00:22:06;;;;;;;;;16.00;15.25;;;;;-143.47;100.00;63865.75;2100310;27;46870;-53
2023/08/10 00:23:06;;;;;;;;;11.75;11.75;;;;;-143.47;100.00;63865.75;2088361;28;46692;-53
2023/08/10 00:24:06;;;;;;;;;13.00;12.50;;;;;-143.47;100.00;63865.75;2092424;28;46322;-53
2023/08/10 00:25:07;;;;;;;;;15.25;15.25;;;;;-143.47;100.00;63865.75;2095415;28;46474;-52
2023/08/10 00:26:08;;;;;;;;;13.33;13.33;;;;;-143.47;100.00;63865.75;2092433;28;46257;-52
2023/08/10 00:27:08;;;;;;;;;14.00;13.00;;;;;-143.47;100.00;63865.75;2092012;28;46843;-53
2023/08/10 00:28:09;;;;;;;;;13.50;13.25;;;;;-143.47;100.00;63865.75;2089199;28;46267;-52
2023/08/10 00:29:09;;;;;;;;;6.00;6.00;;;;;-143.47;100.00;63865.75;2090730;28;47260;-51
2023/08/10 00:30:10;;;;;;;;;12.50;11.50;;;;;-143.47;100.00;63865.75;2096876;28;46657;-51
2023/08/10 00:31:10;;;;;;;;;12.50;11.75;;;;;-143.47;100.00;63865.75;2091531;28;46644;-52
2023/08/10 00:32:10;;;;;;;;;15.00;11.67;;;;;-143.47;100.00;63865.75;2092845;28;46718;-52
2023/08/10 00:33:11;;;;;;;;;5.00;5.00;;;;;-143.47;100.00;63865.75;2096004;28;46852;-49
2023/08/10 00:34:12;;;;;;;;;13.00;13.00;;;;;-143.47;100.00;63865.75;2094914;28;46247;-53
2023/08/10 00:35:13;;;;;;;;;12.75;11.50;;;;;-143.47;100.00;63865.75;2096041;28;46922;-53
2023/08/10 00:36:14;;;;;;;;;11.80;11.80;;;;;-143.47;100.00;63865.75;2096677;28;46355;-50
2023/08/10 00:37:14;;;;;;;;;13.75;13.00;;;;;-143.47;100.00;63865.75;2096470;28;46978;-51
2023/08/10 00:38:15;;;;;;;;;14.25;13.00;;;;;-143.47;100.00;63865.75;2095503;28;46137;-52
2023/08/10 00:39:17;;;;;;;;;12.50;12.50;;;;;-143.47;100.00;63865.75;2096469;28;45536;-53
2023/08/10 00:40:17;;;;;;;;;13.00;11.60;;;;;-143.47;100.00;63865.75;2094810;28;47219;-53
2023/08/10 00:41:18;;;;;;;;;19.00;17.75;;;;;-143.47;100.00;63865.75;2093318;28;46581;-51
2023/08/10 00:42:19;;;;;;;;;12.40;11.60;;;;;-143.47;100.00;63865.75;2093707;28;47155;-54
2023/08/10 00:43:21;;;;;;;;;16.00;14.25;;;;;-143.47;100.00;63865.75;2096081;28;46511;-52
2023/08/10 00:44:21;;;;;;;;;15.20;15.20;;;;;-143.47;100.00;63865.75;2096785;28;46238;-54
2023/08/10 00:45:21;;;;;;;;;12.75;11.50;;;;;-143.47;100.00;63865.75;2094387;28;46945;-51
2023/08/10 00:46:22;;;;;;;;;16.00;14.50;;;;;-143.47;100.00;63865.75;2096361;28;46691;-51
2023/08/10 00:47:23;;;;;;;;;8.25;8.00;;;;;-143.47;100.00;63865.75;2096584;28;46526;-52
2023/08/10 00:48:25;;;;;;;;;13.20;13.20;;;;;-143.47;100.00;63865.75;2096548;28;46671;-52
2023/08/10 00:49:26;;;;;;;;;13.20;13.20;;;;;-143.47;100.00;63865.75;2096693;28;46483;-53
2023/08/10 00:50:27;;;;;;;;;13.25;13.25;;;;;-143.47;100.00;63865.75;2096368;28;46210;-50
2023/08/10 00:51:28;;;;;;;;;13.50;13.00;;;;;-143.47;100.00;63865.75;2096504;28;46547;-52
2023/08/10 00:52:29;;;;;;;;;14.80;14.00;;;;;-143.47;100.00;63865.75;2092992;28;46356;-54
2023/08/10 00:53:30;;;;;;;;;13.00;11.00;;;;;-143.47;100.00;63865.75;2096689;28;46995;-55
2023/08/10 00:54:31;;;;;;;;;12.00;12.00;;;;;-143.47;100.00;63865.75;2094233;28;46436;-53
2023/08/10 00:55:32;;;;;;;;;13.20;12.80;;;;;-143.47;100.00;63865.75;2095952;28;46681;-54
2023/08/10 00:56:33;;;;;;;;;14.40;14.20;;;;;-143.47;100.00;63865.75;2096710;27;47032;-52
2023/08/10 00:57:34;;;;;;;;;14.00;13.25;;;;;-143.47;100.00;63865.75;2094523;28;46294;-55
2023/08/10 00:58:35;;;;;;;;;15.00;15.00;;;;;-143.47;100.00;63865.75;2095480;28;46864;-53
2023/08/10 00:59:37;;;;;;;;;12.80;12.00;;;;;-143.47;100.00;63865.75;2096520;28;46609;-52
2023/08/10 01:00:38;;;;;;;;;12.60;12.60;;;;;-143.47;100.00;63865.75;2095338;28;46586;-53
2023/08/10 01:01:39;;;;;;;;;12.50;11.50;;;;;-143.47;100.00;63865.75;2087391;28;46294;-54
2023/08/10 01:02:40;;;;;;;;;12.25;12.00;;;;;-143.47;100.00;63865.75;2087225;28;46180;-53
2023/08/10 01:03:40;;;;;;;;;14.40;13.00;;;;;-143.47;100.00;63865.75;2095827;28;46317;-50
2023/08/10 01:04:41;;;;;;;;;13.25;13.25;;;;;-143.47;100.00;63865.75;2096472;28;46766;-52
2023/08/10 01:05:52;;;;;;;;;11.60;11.60;;;;;-143.47;100.00;63865.75;2094470;28;46627;-54
2023/08/10 01:07:10;;;;;;;;;16.00;15.20;;;;;-143.47;100.00;63865.75;2096382;28;46890;-49
2023/08/10 01:08:21;;;;;;;;;12.60;12.00;;;;;-143.47;100.00;63865.75;2096048;28;47470;-50
2023/08/10 01:09:38;;;;;;;;;11.40;10.60;;;;;-143.47;100.00;63865.75;2096457;28;46951;-52
2023/08/10 01:10:46;;;;;;;;;13.80;12.20;;;;;-143.47;100.00;63865.75;2095604;28;46466;-54
2023/08/10 01:12:07;;;;;;;;;10.40;10.40;;;;;-143.47;100.00;63865.75;2091637;28;46508;-53
2023/08/10 01:13:17;;;;;;;;;12.60;11.20;;;;;-143.47;100.00;63865.75;2088027;28;46508;-53
2023/08/10 01:14:30;;;;;;;;;10.00;8.40;;;;;-143.47;100.00;63865.75;2092707;28;46386;-53
2023/08/10 01:15:45;;;;;;;;;13.20;12.60;;;;;-143.47;100.00;63865.75;2094270;27;46733;-54
2023/08/10 01:16:50;;;;;;;;;13.80;12.60;;;;;-143.47;100.00;63865.75;2091927;28;46936;-51
2023/08/10 01:17:55;;;;;;;;;12.60;12.60;;;;;-143.47;100.00;63865.75;2088012;28;46371;-54
2023/08/10 01:18:56;;;;;;;;;10.80;10.80;;;;;-143.47;100.00;63865.75;2093020;28;46431;-55
2023/08/10 01:20:01;;;;;;;;;11.80;11.80;;;;;-143.47;100.00;63865.75;2095765;28;46555;-52
2023/08/10 01:21:33;;;;;;;;;10.40;10.40;;;;;-143.47;100.00;63865.75;2096320;28;46863;-55
2023/08/10 01:22:47;;;;;;;;;13.00;12.00;;;;;-143.47;100.00;63865.75;2087404;28;45661;-54
2023/08/10 01:23:49;;;;;;;;;9.80;9.80;;;;;-143.47;100.00;63865.75;2086722;28;46334;-55
2023/08/10 01:25:09;;;;;;;;;13.00;12.80;;;;;-143.47;100.00;63865.75;2086584;28;46423;-54
2023/08/10 01:26:10;;;;;;;;;15.00;14.00;;;;;-143.47;100.00;63865.75;2086794;28;46707;-54
2023/08/10 01:27:12;;;;;;;;;12.60;12.60;;;;;-143.47;100.00;63865.75;2071741;28;46372;-55
2023/08/10 01:28:13;;;;;;;;;11.20;11.20;;;;;-143.47;100.00;63865.75;2076759;28;45534;-53
2023/08/10 01:29:14;;;;;;;;;11.00;11.00;;;;;-143.47;100.00;63865.75;2086899;28;46127;-54
2023/08/10 01:30:15;;;;;;;;;13.20;13.20;;;;;-143.47;100.00;63865.75;2086705;28;46493;-52
2023/08/10 01:31:15;;;;;;;;;12.00;12.00;;;;;-143.47;100.00;63865.75;2084344;28;46117;-52
2023/08/10 01:32:16;;;;;;;;;12.25;11.25;;;;;-143.47;100.00;63865.75;2087567;28;46981;-52
2023/08/10 01:33:18;;;;;;;;;9.75;9.75;;;;;-143.47;100.00;63865.75;2076330;28;46101;-51
2023/08/10 01:34:18;;;;;;;;;11.00;11.00;;;;;-143.47;100.00;63865.75;2078486;28;46561;-49
2023/08/10 01:35:19;;;;;;;;;11.00;11.00;;;;;-143.47;100.00;63865.75;2087175;28;46782;-53
2023/08/10 01:36:19;;;;;;;;;10.00;9.75;;;;;-143.47;100.00;63865.75;2086416;28;46232;-55
2023/08/10 01:37:19;;;;;;;;;11.00;11.00;;;;;-143.47;100.00;63865.75;2086934;28;46362;-53
2023/08/10 01:38:20;;;;;;;;;12.00;12.00;;;;;-143.47;100.00;63865.75;2086719;28;46869;-52
2023/08/10 01:39:20;;;;;;;;;12.00;12.00;;;;;-143.47;100.00;63865.75;2085458;28;46258;-54
2023/08/10 01:40:21;;;;;;;;;13.00;13.00;;;;;-143.47;100.00;63865.75;2087691;28;46373;-53
2023/08/10 01:41:21;;;;;;;;;10.25;10.25;;;;;-143.47;100.00;63865.75;2086670;28;46815;-52
2023/08/10 01:42:22;;;;;;;;;12.00;10.50;;;;;-143.47;100.00;63865.75;2086909;28;46171;-52
2023/08/10 01:43:23;;;;;;;;;12.00;11.80;;;;;-143.47;100.00;63865.75;2092987;28;46672;-52
2023/08/10 01:44:23;;;;;;;;;13.50;13.25;;;;;-143.47;100.00;63865.75;2079976;28;46180;-53
2023/08/10 01:45:24;;;;;;;;;15.25;13.25;;;;;-143.47;100.00;63865.75;2078957;28;46671;-53
2023/08/10 01:46:27;;;;;;;;;10.25;9.50;;;;;-143.47;100.00;63865.75;2085637;28;46594;-53
2023/08/10 01:47:37;;;;;;;;;12.80;11.00;;;;;-143.47;100.00;63865.75;2088649;28;46335;-50
2023/08/10 01:48:39;;;;;;;;;12.20;11.20;;;;;-143.47;100.00;63865.75;2086316;28;46975;-54
2023/08/10 01:49:42;;;;;;;;;10.40;10.40;;;;;-143.47;100.00;63865.75;2086564;28;46419;-52
2023/08/10 01:50:45;;;;;;;;;11.40;10.00;;;;;-143.47;100.00;63865.75;2090144;28;46947;-53
2023/08/10 01:51:48;;;;;;;;;7.25;7.25;;;;;-143.47;100.00;63865.75;2086836;28;46461;-53
2023/08/10 01:52:55;;;;;;;;;9.20;9.00;;;;;-143.47;100.00;63865.75;2087288;28;46796;-54
2023/08/10 01:53:56;;;;;;;;;8.00;8.00;;;;;-143.47;100.00;63865.75;2086619;28;46427;-53
2023/08/10 01:54:58;;;;;;;;;11.20;11.20;;;;;-143.47;100.00;63865.75;2086843;28;46798;-52
2023/08/10 01:55:59;;;;;;;;;9.80;9.40;;;;;-143.47;100.00;63865.75;2090481;28;46419;-52
2023/08/10 01:57:00;;;;;;;;;9.20;8.60;;;;;-143.47;100.00;63865.75;2086928;28;46773;-52
2023/08/10 01:58:00;;;;;;;;;10.33;10.33;;;;;-143.47;100.00;63865.75;2086719;28;46227;-54
2023/08/10 01:59:01;;;;;;;;;10.50;10.50;;;;;-143.47;100.00;63865.75;2086977;28;46409;-50
2023/08/10 02:00:02;;;;;;;;;13.25;12.75;;;;;-143.47;100.00;63865.75;2087135;28;46690;-50
2023/08/10 02:01:03;;;;;;;;;10.60;10.60;;;;;-143.47;100.00;63865.75;2094116;28;46480;-54
2023/08/10 02:02:03;;;;;;;;;9.25;8.25;;;;;-143.47;100.00;63865.75;2094270;28;46176;-51
2023/08/10 02:03:04;;;;;;;;;8.75;8.75;;;;;-143.47;100.00;63865.75;2096450;28;46764;-52
2023/08/10 02:04:05;;;;;;;;;10.60;10.60;;;;;-143.47;100.00;63865.75;2098047;28;45726;-52
2023/08/10 02:05:06;;;;;;;;;9.25;9.00;;;;;-143.47;100.00;63865.75;2095991;28;46705;-55
2023/08/10 02:06:06;;;;;;;;;11.25;11.25;;;;;-143.47;100.00;63865.75;2096954;28;45833;-53
2023/08/10 02:07:06;;;;;;;;;10.75;9.75;;;;;-143.47;100.00;63865.75;2095943;28;46556;-53
2023/08/10 02:08:07;;;;;;;;;11.25;11.25;;;;;-143.47;100.00;63865.75;2095494;28;46525;-53
2023/08/10 02:09:07;;;;;;;;;11.50;10.75;;;;;-143.47;100.00;63865.75;2091329;28;46407;-53
2023/08/10 02:10:11;;;;;;;;;13.25;12.75;;;;;-143.47;100.00;63865.75;2089652;28;46439;-53
2023/08/10 02:11:11;;;;;;;;;13.00;12.40;;;;;-143.47;100.00;63865.75;2095154;28;46635;-49
2023/08/10 02:12:11;;;;;;;;;8.50;8.50;;;;;-143.47;100.00;63865.75;2091360;28;46517;-50
2023/08/10 02:13:12;;;;;;;;;11.00;11.00;;;;;-143.47;100.00;63865.75;2103167;28;46354;-53
2023/08/10 02:14:12;;;;;;;;;14.25;13.50;;;;;-143.47;100.00;63865.75;2107186;27;46961;-52
2023/08/10 02:15:12;;;;;;;;;11.00;11.00;;;;;-143.47;100.00;63865.75;2099397;28;46321;-51
2023/08/10 02:16:14;;;;;;;;;11.00;10.00;;;;;-143.47;100.00;63865.75;2089027;28;46833;-50
2023/08/10 02:17:14;;;;;;;;;13.00;12.00;;;;;-143.47;100.00;63865.75;2094188;28;46237;-52
2023/08/10 02:18:14;;;;;;;;;12.75;11.00;;;;;-143.47;100.00;63865.75;2097579;28;46732;-54
2023/08/10 02:19:15;;;;;;;;;12.00;12.00;;;;;-143.47;100.00;63865.75;2097349;28;46471;-52
2023/08/10 02:20:15;;;;;;;;;11.75;11.75;;;;;-143.47;100.00;63865.75;2094173;28;46329;-51
2023/08/10 02:21:16;;;;;;;;;13.25;11.00;;;;;-143.47;100.00;63865.75;2088440;28;46960;-53
2023/08/10 02:22:16;;;;;;;;;12.25;11.25;;;;;-143.47;100.00;63865.75;2092571;28;46757;-54
2023/08/10 02:23:16;;;;;;;;;11.25;11.25;;;;;-143.47;100.00;63865.75;2095758;28;46126;-53
2023/08/10 02:24:17;;;;;;;;;8.25;8.25;;;;;-143.47;100.00;63865.75;2095334;28;46346;-54
2023/08/10 02:25:22;;;;;;;;;10.75;10.75;;;;;-143.47;100.00;63865.75;2096975;28;46661;-53
2023/08/10 02:26:22;;;;;;;;;9.00;9.00;;;;;-143.47;100.00;63865.75;2097516;28;46786;-52
2023/08/10 02:27:23;;;;;;;;;12.25;12.25;;;;;-143.47;100.00;63865.75;2097483;28;46179;-53
2023/08/10 02:28:23;;;;;;;;;9.75;9.50;;;;;-143.47;100.00;63865.75;2097755;28;46165;-53
2023/08/10 02:29:23;;;;;;;;;9.00;9.00;;;;;-143.47;100.00;63865.75;2097622;28;46214;-52
2023/08/10 02:30:24;;;;;;;;;11.50;10.25;;;;;-143.47;100.00;63865.75;2082554;28;46412;-53
2023/08/10 02:31:24;;;;;;;;;9.50;8.75;;;;;-143.47;100.00;63865.75;2093388;28;46340;-53
2023/08/10 02:32:24;;;;;;;;;8.00;8.00;;;;;-143.47;100.00;63865.75;2097610;28;46460;-54
2023/08/10 02:33:25;;;;;;;;;12.50;11.75;;;;;-143.47;100.00;63865.75;2095580;28;46787;-51
2023/08/10 02:34:25;;;;;;;;;8.00;8.00;;;;;-143.47;100.00;63865.75;2087005;28;46311;-51
2023/08/10 02:35:25;;;;;;;;;7.25;7.25;;;;;-143.47;100.00;63865.75;2096724;28;46389;-53
2023/08/10 02:36:26;;;;;;;;;9.00;9.00;;;;;-143.47;100.00;63865.75;2098009;28;46123;-51
2023/08/10 02:37:26;;;;;;;;;6.00;6.00;;;;;-143.47;100.00;63865.75;2096181;28;46680;-54
2023/08/10 02:38:26;;;;;;;;;11.75;10.75;;;;;-143.47;100.00;63865.75;2096436;28;46177;-50
2023/08/10 02:39:27;;;;;;;;;12.00;12.00;;;;;-143.47;100.00;63865.75;2097274;28;46614;-51
2023/08/10 02:40:27;;;;;;;;;11.50;10.25;;;;;-143.47;100.00;63865.75;2097678;28;46523;-53
2023/08/10 02:41:27;;;;;;;;;8.50;8.50;;;;;-143.47;100.00;63865.75;2097094;28;46626;-52
2023/08/10 02:42:28;;;;;;;;;11.00;11.00;;;;;-143.47;100.00;63865.75;2097683;28;46933;-53
2023/08/10 02:43:28;;;;;;;;;12.00;10.00;;;;;-143.47;100.00;63865.75;2092763;28;46193;-54
2023/08/10 02:44:28;;;;;;;;;10.50;10.25;;;;;-143.47;100.00;63865.75;2092096;28;46215;-55
2023/08/10 02:45:28;;;;;;;;;7.00;7.00;;;;;-143.47;100.00;63865.75;2097214;28;46561;-54
2023/08/10 02:46:29;;;;;;;;;10.75;10.75;;;;;-143.47;100.00;63865.75;2095304;28;46301;-51
2023/08/10 02:47:29;;;;;;;;;9.25;8.75;;;;;-143.47;100.00;63865.75;2094699;28;46765;-53
2023/08/10 02:48:29;;;;;;;;;9.75;8.50;;;;;-143.47;100.00;63865.75;2097593;28;46602;-53
2023/08/10 02:49:30;;;;;;;;;8.50;8.00;;;;;-143.47;100.00;63865.75;2097214;28;46464;-54
2023/08/10 02:50:30;;;;;;;;;9.25;9.00;;;;;-143.47;100.00;63865.75;2097370;28;46685;-53
2023/08/10 02:51:30;;;;;;;;;9.50;8.50;;;;;-143.47;100.00;63865.75;2097600;28;46261;-53
2023/08/10 02:52:31;;;;;;;;;6.00;5.50;;;;;-143.47;100.00;63865.75;2095423;28;46761;-52
2023/08/10 02:53:31;;;;;;;;;8.75;7.75;;;;;-143.47;100.00;63865.75;2093599;28;46555;-52
2023/08/10 02:54:31;;;;;;;;;9.00;8.75;;;;;-143.47;100.00;63865.75;2106538;27;46484;-52
2023/08/10 02:55:32;;;;;;;;;9.00;9.00;;;;;-143.47;100.00;63865.75;2094947;28;46017;-49
2023/08/10 02:56:33;;;;;;;;;10.50;10.50;;;;;-143.47;100.00;63865.75;2096450;28;46206;-52
2023/08/10 02:57:33;;;;;;;;;8.50;8.50;;;;;-143.47;100.00;63865.75;2096333;28;46355;-54
2023/08/10 02:58:33;;;;;;;;;9.00;9.00;;;;;-143.47;100.00;63865.75;2097667;28;47143;-55
2023/08/10 02:59:34;;;;;;;;;9.50;8.25;;;;;-143.47;100.00;63865.75;2097354;28;46547;-52
2023/08/10 03:00:34;;;;;;;;;8.00;8.00;;;;;-143.47;100.00;63865.75;2097218;28;46261;-52
2023/08/10 03:01:34;;;;;;;;;9.25;9.25;;;;;-143.47;100.00;63865.75;2097777;28;46009;-50
2023/08/10 03:02:35;;;;;;;;;9.50;8.25;;;;;-143.47;100.00;63865.75;2097110;28;46826;-51
2023/08/10 03:03:35;;;;;;;;;8.00;8.00;;;;;-143.47;100.00;63865.75;2094999;28;46721;-50
2023/08/10 03:04:35;;;;;;;;;12.75;10.25;;;;;-143.47;100.00;63865.75;2091722;28;46151;-53
2023/08/10 03:05:36;;;;;;;;;9.75;7.75;;;;;-143.47;100.00;63865.75;2094031;28;46625;-51
2023/08/10 03:06:36;;;;;;;;;9.00;9.00;;;;;-143.47;100.00;63865.75;2093845;28;46795;-50
2023/08/10 03:07:36;;;;;;;;;8.00;7.75;;;;;-143.47;100.00;63865.75;2096976;28;48301;-53
2023/08/10 03:08:37;;;;;;;;;9.25;8.00;;;;;-143.47;100.00;63865.75;2090368;28;46374;-53
2023/08/10 03:09:37;;;;;;;;;8.75;7.50;;;;;-143.47;100.00;63865.75;2096528;28;46273;-53
2023/08/10 03:10:37;;;;;;;;;9.25;9.25;;;;;-143.47;100.00;63865.75;2095100;28;46249;-50
2023/08/10 03:11:38;;;;;;;;;8.50;8.50;;;;;-143.47;100.00;63865.75;2090009;28;46358;-54
2023/08/10 03:12:38;;;;;;;;;10.75;10.00;;;;;-143.47;100.00;63865.75;2097137;28;46790;-53
2023/08/10 03:13:38;;;;;;;;;6.25;6.00;;;;;-143.47;100.00;63865.75;2095986;28;47126;-51
2023/08/10 03:14:39;;;;;;;;;7.00;7.00;;;;;-143.47;100.00;63865.75;2101690;27;46465;-54
2023/08/10 03:15:39;;;;;;;;;8.50;8.50;;;;;-143.47;100.00;63865.75;2100356;27;46521;-53
2023/08/10 03:16:40;;;;;;;;;10.75;10.75;;;;;-143.47;100.00;63865.75;2095149;28;46190;-53
2023/08/10 03:17:40;;;;;;;;;9.75;9.75;;;;;-143.47;100.00;63865.75;2099166;28;46153;-53
2023/08/10 03:18:41;;;;;;;;;7.00;7.00;;;;;-143.47;100.00;63865.75;2098368;28;46832;-53
2023/08/10 03:19:42;;;;;;;;;8.00;8.00;;;;;-143.47;100.00;63865.75;2094981;28;46611;-52
2023/08/10 03:20:42;;;;;;;;;9.00;9.00;;;;;-143.47;100.00;63865.75;2097163;28;46240;-51
2023/08/10 03:21:42;;;;;;;;;10.00;7.75;;;;;-143.47;100.00;63865.75;2098014;28;46244;-55
2023/08/10 03:22:43;;;;;;;;;10.00;10.00;;;;;-143.47;100.00;63865.75;2093788;27;46570;-54
2023/08/10 03:23:46;;;;;;;;;10.20;9.00;;;;;-143.47;100.00;63865.75;2094704;28;45202;-53
2023/08/10 03:24:46;;;;;;;;;7.80;7.80;;;;;-143.47;100.00;63865.75;2088566;28;45405;-52
2023/08/10 03:25:46;;;;;;;;;12.25;11.00;;;;;-143.47;100.00;63865.75;2095553;28;46331;-53
2023/08/10 03:26:47;;;;;;;;;8.75;8.25;;;;;-143.47;100.00;63865.75;2095696;28;46209;-53
2023/08/10 03:27:47;;;;;;;;;10.25;8.25;;;;;-143.47;100.00;63865.75;2105423;27;46472;-51
2023/08/10 03:28:47;;;;;;;;;9.50;8.25;;;;;-143.47;100.00;63865.75;2100640;27;47142;-52
2023/08/10 03:29:48;;;;;;;;;10.75;9.00;;;;;-143.47;100.00;63865.75;2097009;28;46591;-54
2023/08/10 03:30:48;;;;;;;;;10.75;9.25;;;;;-143.47;100.00;63865.75;2096128;28;46565;-53
2023/08/10 03:31:49;;;;;;;;;10.50;10.50;;;;;-143.47;100.00;63865.75;2097235;28;46179;-54
2023/08/10 03:32:49;;;;;;;;;9.00;9.00;;;;;-143.47;100.00;63865.75;2093645;28;45623;-53
2023/08/10 03:33:50;;;;;;;;;9.00;8.75;;;;;-143.47;100.00;63865.75;2094988;28;47179;-49
2023/08/10 03:34:50;;;;;;;;;12.25;11.50;;;;;-143.47;100.00;63865.75;2096840;28;46590;-54
2023/08/10 03:35:50;;;;;;;;;10.75;10.75;;;;;-143.47;100.00;63865.75;2095393;27;46962;-53
2023/08/10 03:36:51;;;;;;;;;14.00;12.75;;;;;-143.47;100.00;63865.75;2096073;28;46318;-53
2023/08/10 03:37:51;;;;;;;;;11.75;10.00;;;;;-143.47;100.00;63865.75;2089978;28;45983;-53
2023/08/10 03:38:51;;;;;;;;;13.00;11.00;;;;;-143.47;100.00;63865.75;2092370;28;46235;-52
2023/08/10 03:39:52;;;;;;;;;8.25;8.25;;;;;-143.47;100.00;63865.75;2092990;28;46223;-50
2023/08/10 03:40:52;;;;;;;;;10.50;9.50;;;;;-143.47;100.00;63865.75;2094998;28;46232;-51
2023/08/10 03:41:52;;;;;;;;;6.50;6.00;;;;;-143.47;100.00;63865.75;2096340;28;46795;-52
2023/08/10 03:42:52;;;;;;;;;7.25;7.00;;;;;-143.47;100.00;63865.75;2092222;28;46701;-51
2023/08/10 03:43:53;;;;;;;;;8.00;8.00;;;;;-143.47;100.00;63865.75;2097599;28;46723;-52
2023/08/10 03:44:55;;;;;;;;;8.00;8.00;;;;;-143.47;100.00;63865.75;2096399;28;46546;-53
2023/08/10 03:45:55;;;;;;;;;9.80;9.80;;;;;-143.47;100.00;63865.75;2094990;28;46723;-53
2023/08/10 03:46:55;;;;;;;;;11.75;11.25;;;;;-143.47;100.00;63865.75;2095731;28;46614;-53
2023/08/10 03:47:56;;;;;;;;;8.25;8.25;;;;;-143.47;100.00;63865.75;2096262;28;46330;-51
2023/08/10 03:48:56;;;;;;;;;8.25;8.25;;;;;-143.47;100.00;63865.75;2091810;28;46527;-52
2023/08/10 03:49:56;;;;;;;;;11.25;9.75;;;;;-143.47;100.00;63865.75;2091255;28;46592;-53
2023/08/10 03:50:57;;;;;;;;;9.25;7.50;;;;;-143.47;100.00;63865.75;2095264;28;46533;-50
2023/08/10 03:51:57;;;;;;;;;9.00;8.75;;;;;-143.47;100.00;63865.75;2093834;28;46293;-53
2023/08/10 03:52:57;;;;;;;;;7.75;7.00;;;;;-143.47;100.00;63865.75;2102692;28;46255;-52
2023/08/10 03:53:58;;;;;;;;;8.50;7.00;;;;;-143.47;100.00;63865.75;2090578;28;46178;-51
2023/08/10 03:54:59;;;;;;;;;8.00;7.50;;;;;-143.47;100.00;63865.75;2091739;28;46623;-53
2023/08/10 03:55:59;;;;;;;;;7.40;7.40;;;;;-143.47;100.00;63865.75;2088199;28;46403;-53
2023/08/10 03:56:59;;;;;;;;;8.75;8.25;;;;;-143.47;100.00;63865.75;2091608;28;45882;-53
2023/08/10 03:58:00;;;;;;;;;8.00;7.75;;;;;-143.47;100.00;63865.75;2095032;28;46601;-52
2023/08/10 03:59:00;;;;;;;;;10.00;9.00;;;;;-143.47;100.00;63865.75;2096895;28;46474;-54
2023/08/10 04:00:00;;;;;;;;;6.75;6.25;;;;;-143.47;100.00;63865.75;2096987;28;46878;-54
2023/08/10 04:01:02;;;;;;;;;8.25;8.25;;;;;-143.47;100.00;63865.75;2103212;28;46617;-54
2023/08/10 04:02:03;;;;;;;;;10.25;10.25;;;;;-143.47;100.00;63865.75;2094425;28;46354;-53
2023/08/10 04:03:03;;;;;;;;;8.75;8.00;;;;;-143.47;100.00;63865.75;2098309;28;46746;-54
2023/08/10 04:04:04;;;;;;;;;10.00;8.25;;;;;-143.47;100.00;63865.75;2100457;28;46826;-52
2023/08/10 04:05:06;;;;;;;;;10.75;9.75;;;;;-143.47;100.00;63865.75;2093226;27;46723;-54
2023/08/10 04:06:06;;;;;;;;;8.00;8.00;;;;;-143.47;100.00;63865.75;2100981;27;46781;-53
2023/08/10 04:07:07;;;;;;;;;8.50;8.50;;;;;-143.47;100.00;63865.75;2093805;28;45547;-53
2023/08/10 04:08:09;;;;;;;;;8.40;8.40;;;;;-143.47;100.00;63865.75;2093629;28;46422;-53
2023/08/10 04:09:09;;;;;;;;;6.60;6.60;;;;;-143.47;100.00;63865.75;2101107;28;46486;-53
2023/08/10 04:10:10;;;;;;;;;8.50;7.50;;;;;-143.47;100.00;63865.75;2105214;27;45901;-54
2023/08/10 04:11:10;;;;;;;;;8.00;7.50;;;;;-143.47;100.00;63865.75;2097245;27;46342;-52
2023/08/10 04:12:11;;;;;;;;;9.00;6.00;;;;;-143.47;100.00;63865.75;2099017;28;46292;-53
2023/08/10 04:13:11;;;;;;;;;9.75;8.00;;;;;-143.47;100.00;63865.75;2098562;27;46358;-53
2023/08/10 04:14:11;;;;;;;;;2.25;2.25;;;;;-143.47;100.00;63865.75;2098918;28;46772;-52
2023/08/10 04:15:12;;;;;;;;;6.00;6.00;;;;;-143.47;100.00;63865.75;2101431;28;46203;-51
2023/08/10 04:16:12;;;;;;;;;7.00;7.00;;;;;-143.47;100.00;63865.75;2093215;28;46057;-51
2023/08/10 04:17:12;;;;;;;;;7.00;7.00;;;;;-143.47;100.00;63865.75;2097621;28;46401;-49
2023/08/10 04:18:13;;;;;;;;;7.25;6.25;;;;;-143.47;100.00;63865.75;2091574;28;46139;-53
2023/08/10 04:19:13;;;;;;;;;7.00;7.00;;;;;-143.47;100.00;63865.75;2095679;28;46679;-53
2023/08/10 04:20:14;;;;;;;;;9.00;9.00;;;;;-143.47;100.00;63865.75;2095559;28;46641;-49
2023/08/10 04:21:15;;;;;;;;;8.75;8.75;;;;;-143.47;100.00;63865.75;2096592;27;46442;-51
2023/08/10 04:22:16;;;;;;;;;8.00;7.75;;;;;-143.47;100.00;63865.75;2088174;28;46266;-49
2023/08/10 04:23:16;;;;;;;;;8.25;8.25;;;;;-143.47;100.00;63865.75;2089134;28;46222;-51
2023/08/10 04:24:16;;;;;;;;;9.00;5.33;;;;;-143.47;100.00;63865.75;2093457;28;46400;-52
2023/08/10 04:25:16;;;;;;;;;6.33;6.33;;;;;-143.47;100.00;63865.75;2094176;28;46281;-52
2023/08/10 04:26:18;;;;;;;;;8.00;8.00;;;;;-143.47;100.00;63865.75;2096133;28;46253;-52
2023/08/10 04:27:18;;;;;;;;;7.60;6.80;;;;;-143.47;100.00;63865.75;2093051;28;46889;-53
2023/08/10 04:28:18;;;;;;;;;6.00;6.00;;;;;-143.47;100.00;63865.75;2088079;28;46293;-54
2023/08/10 04:29:19;;;;;;;;;9.25;9.25;;;;;-143.47;100.00;63865.75;2095378;28;46896;-51
2023/08/10 04:30:19;;;;;;;;;8.75;7.50;;;;;-143.47;100.00;63865.75;2089385;28;46757;-53
2023/08/10 04:31:19;;;;;;;;;7.00;7.00;;;;;-143.47;100.00;63865.75;2095299;28;46815;-54
2023/08/10 04:32:20;;;;;;;;;7.67;6.67;;;;;-143.47;100.00;63865.75;2099284;28;46638;-53
2023/08/10 04:33:20;;;;;;;;;8.33;8.33;;;;;-143.47;100.00;63865.75;2111418;27;46573;-53
2023/08/10 04:34:20;;;;;;;;;7.67;7.67;;;;;-143.47;100.00;63865.75;2107752;27;46684;-52
2023/08/10 04:35:21;;;;;;;;;6.00;5.67;;;;;-143.47;100.00;63865.75;2097790;27;46426;-53